createdAt,value
2023-03-12T00:00:08.957Z,100472.25
2023-03-12T00:02:36.244Z,100466.22
2023-03-12T00:05:03.879Z,100467.94
2023-03-12T00:07:31.299Z,100464.50
2023-03-12T00:09:58.741Z,100468.81
2023-03-12T00:12:26.134Z,100473.97
2023-03-12T00:14:53.525Z,100470.53
2023-03-12T00:17:20.877Z,100466.22
2023-03-12T00:19:54.924Z,100470.53
2023-03-12T00:22:23.044Z,100470.53
2023-03-12T00:24:55.502Z,100467.94
2023-03-12T00:27:23.374Z,100473.09
2023-03-12T00:29:50.659Z,100469.66
2023-03-12T00:32:17.998Z,100472.28
2023-03-12T00:34:50.094Z,100469.66
2023-03-12T00:37:17.359Z,100471.41
2023-03-12T00:39:44.621Z,100480.00
2023-03-12T00:42:11.834Z,100470.53
2023-03-12T00:44:39.224Z,100474.00
2023-03-12T00:47:06.678Z,100472.25
2023-03-12T00:49:33.906Z,100472.25
2023-03-12T00:52:01.135Z,100477.44
2023-03-12T00:54:28.424Z,100487.78
2023-03-12T00:56:55.654Z,100481.72
2023-03-12T00:59:22.913Z,100473.09
2023-03-12T01:01:50.189Z,100485.19
2023-03-12T01:04:17.803Z,100483.47
2023-03-12T01:06:45.105Z,100489.53
2023-03-12T01:09:12.342Z,100485.19
2023-03-12T01:11:39.579Z,100486.91
2023-03-12T01:14:08.218Z,100486.94
2023-03-12T01:16:35.558Z,100489.50
2023-03-12T01:19:04.095Z,100486.91
2023-03-12T01:21:32.099Z,100492.13
2023-03-12T01:23:59.495Z,100494.69
2023-03-12T01:26:26.950Z,100493.81
2023-03-12T01:28:54.171Z,100498.16
2023-03-12T01:31:21.715Z,100500.72
2023-03-12T01:33:50.987Z,100492.09
2023-03-12T01:36:29.420Z,100499.00
2023-03-12T01:38:59.118Z,100502.44
2023-03-12T01:41:28.222Z,100506.81
2023-03-12T01:43:55.543Z,100503.38
2023-03-12T01:46:34.860Z,100510.28
2023-03-12T01:49:02.039Z,100511.16
2023-03-12T01:52:05.093Z,100508.56
2023-03-12T01:54:45.531Z,100518.94
2023-03-12T01:57:16.467Z,100522.41
2023-03-12T01:59:50.458Z,100519.81
2023-03-12T02:02:20.242Z,100518.94
2023-03-12T02:04:47.784Z,100524.13
2023-03-12T02:07:16.813Z,100525.00
2023-03-12T02:09:47.547Z,100519.81
2023-03-12T02:12:15.643Z,100514.63
2023-03-12T02:14:42.954Z,100520.66
2023-03-12T02:17:11.293Z,100517.22
2023-03-12T02:20:03.416Z,100524.13
2023-03-12T02:22:30.781Z,100525.84
2023-03-12T02:25:03.963Z,100526.72
2023-03-12T02:27:36.301Z,100530.19
2023-03-12T02:30:04.672Z,100528.44
2023-03-12T02:32:36.547Z,100525.84
2023-03-12T02:35:05.052Z,100533.63
2023-03-12T02:37:32.388Z,100534.50
2023-03-12T02:40:17.488Z,100532.75
2023-03-12T02:42:45.672Z,100539.63
2023-03-12T02:45:12.951Z,100543.13
2023-03-12T02:47:40.150Z,100543.97
2023-03-12T02:50:07.983Z,100556.09
2023-03-12T02:52:37.287Z,100557.81
2023-03-12T02:55:05.101Z,100558.69
2023-03-12T02:57:32.356Z,100558.69
2023-03-12T02:59:59.573Z,100563.88
2023-03-12T03:02:26.833Z,100563.88
2023-03-12T03:04:54.088Z,100558.69
2023-03-12T03:07:21.480Z,100565.59
2023-03-12T03:09:48.762Z,100576.00
2023-03-12T03:12:15.980Z,100574.25
2023-03-12T03:14:43.219Z,100582.03
2023-03-12T03:17:10.437Z,100586.38
2023-03-12T03:19:37.654Z,100587.22
2023-03-12T03:22:05.100Z,100587.22
2023-03-12T03:24:32.299Z,100592.41
2023-03-12T03:26:59.582Z,100583.75
2023-03-12T03:29:26.898Z,100595.00
2023-03-12T03:31:54.118Z,100597.59
2023-03-12T03:34:21.318Z,100595.84
2023-03-12T03:36:48.557Z,100607.06
2023-03-12T03:39:15.764Z,100597.53
2023-03-12T03:41:42.998Z,100596.66
2023-03-12T03:44:10.324Z,100600.97
2023-03-12T03:46:37.650Z,100610.44
2023-03-12T03:49:05.312Z,100609.63
2023-03-12T03:51:32.634Z,100614.81
2023-03-12T03:54:00.494Z,100618.28
2023-03-12T03:56:27.956Z,100624.38
2023-03-12T03:58:55.206Z,100625.22
2023-03-12T04:01:22.406Z,100622.66
2023-03-12T04:03:49.620Z,100625.22
2023-03-12T04:06:16.845Z,100627.81
2023-03-12T04:08:44.080Z,100632.19
2023-03-12T04:11:14.900Z,100624.34
2023-03-12T04:13:42.571Z,100633.00
2023-03-12T04:16:10.222Z,100632.16
2023-03-12T04:18:37.657Z,100633.00
2023-03-12T04:21:09.953Z,100633.00
2023-03-12T04:23:37.547Z,100629.53
2023-03-12T04:26:06.345Z,100629.50
2023-03-12T04:28:34.026Z,100629.50
2023-03-12T04:31:04.047Z,100632.94
2023-03-12T04:33:36.844Z,100632.91
2023-03-12T04:36:04.788Z,100644.06
2023-03-12T04:38:32.174Z,100638.03
2023-03-12T04:41:08.517Z,100635.44
2023-03-12T04:43:36.110Z,100633.69
2023-03-12T04:46:03.704Z,100639.69
2023-03-12T04:48:31.328Z,100641.41
2023-03-12T04:50:58.701Z,100635.31
2023-03-12T04:53:26.284Z,100636.13
2023-03-12T04:55:53.642Z,100634.41
2023-03-12T04:58:21.164Z,100639.59
2023-03-12T05:00:49.458Z,100643.03
2023-03-12T05:03:16.938Z,100638.72
2023-03-12T05:05:44.264Z,100641.31
2023-03-12T05:08:11.513Z,100647.31
2023-03-12T05:10:38.845Z,100649.00
2023-03-12T05:13:13.084Z,100644.66
2023-03-12T05:15:40.315Z,100644.66
2023-03-12T05:18:07.585Z,100643.84
2023-03-12T05:20:34.842Z,100643.78
2023-03-12T05:23:02.097Z,100639.47
2023-03-12T05:25:29.345Z,100645.53
2023-03-12T05:27:56.621Z,100650.69
2023-03-12T05:30:23.879Z,100648.91
2023-03-12T05:32:51.185Z,100645.44
2023-03-12T05:35:18.561Z,100642.03
2023-03-12T05:37:45.836Z,100648.94
2023-03-12T05:40:13.745Z,100649.75
2023-03-12T05:42:40.994Z,100643.69
2023-03-12T05:45:08.798Z,100648.09
2023-03-12T05:47:36.059Z,100644.63
2023-03-12T05:50:03.353Z,100651.50
2023-03-12T05:52:30.663Z,100649.81
2023-03-12T05:54:57.879Z,100654.13
2023-03-12T05:57:25.129Z,100654.13
2023-03-12T05:59:52.376Z,100658.50
2023-03-12T06:02:20.069Z,100658.53
2023-03-12T06:04:47.339Z,100650.78
2023-03-12T06:07:14.583Z,100655.06
2023-03-12T06:09:42.947Z,100646.44
2023-03-12T06:12:10.196Z,100653.34
2023-03-12T06:14:37.362Z,100649.91
2023-03-12T06:17:04.665Z,100657.69
2023-03-12T06:19:31.981Z,100649.94
2023-03-12T06:21:59.272Z,100659.44
2023-03-12T06:24:26.516Z,100648.22
2023-03-12T06:26:53.789Z,100659.47
2023-03-12T06:29:21.024Z,100660.31
2023-03-12T06:31:48.399Z,100660.34
2023-03-12T06:34:16.927Z,100665.53
2023-03-12T06:36:44.328Z,100665.56
2023-03-12T06:39:11.542Z,100675.94
2023-03-12T06:41:38.787Z,100681.19
2023-03-12T06:44:06.492Z,100681.19
2023-03-12T06:46:34.356Z,100678.66
2023-03-12T06:49:02.073Z,100677.78
2023-03-12T06:51:29.337Z,100676.94
2023-03-12T06:53:56.689Z,100677.78
2023-03-12T06:56:23.905Z,100681.25
2023-03-12T06:58:51.178Z,100686.47
2023-03-12T07:01:18.434Z,100682.19
2023-03-12T07:03:45.725Z,100683.97
2023-03-12T07:06:18.310Z,100680.56
2023-03-12T07:08:45.894Z,100681.44
2023-03-12T07:11:13.717Z,100681.47
2023-03-12T07:13:41.294Z,100683.19
2023-03-12T07:16:08.927Z,100684.06
2023-03-12T07:18:36.188Z,100685.78
2023-03-12T07:21:03.773Z,100681.44
2023-03-12T07:23:31.131Z,100691.81
2023-03-12T07:25:58.355Z,100689.19
2023-03-12T07:28:25.730Z,100688.31
2023-03-12T07:30:52.983Z,100690.91
2023-03-12T07:33:21.713Z,100689.09
2023-03-12T07:35:51.607Z,100692.44
2023-03-12T07:38:19.757Z,100685.44
2023-03-12T07:40:51.809Z,100681.00
2023-03-12T07:43:21.540Z,100688.78
2023-03-12T07:45:49.673Z,100686.13
2023-03-12T07:48:19.614Z,100683.69
2023-03-12T07:50:47.015Z,100683.66
2023-03-12T07:53:14.275Z,100688.97
2023-03-12T07:55:43.671Z,100688.94
2023-03-12T07:58:12.993Z,100683.63
2023-03-12T08:00:40.601Z,100678.31
2023-03-12T08:03:08.516Z,100686.97
2023-03-12T08:05:36.500Z,100681.72
2023-03-12T08:08:03.845Z,100687.69
2023-03-12T08:10:31.157Z,100688.44
2023-03-12T08:12:58.665Z,100692.75
2023-03-12T08:15:25.957Z,100692.72
2023-03-12T08:17:53.226Z,100695.34
2023-03-12T08:20:20.573Z,100697.00
2023-03-12T08:22:48.552Z,100697.81
2023-03-12T08:25:16.258Z,100695.84
2023-03-12T08:27:43.489Z,100696.63
2023-03-12T08:30:11.606Z,100695.69
2023-03-12T08:32:39.014Z,100698.13
2023-03-12T08:35:06.905Z,100691.13
2023-03-12T08:37:34.161Z,100684.25
2023-03-12T08:40:01.443Z,100681.34
2023-03-12T08:42:28.788Z,100683.94
2023-03-12T08:44:56.081Z,100683.78
2023-03-12T08:47:23.364Z,100686.31
2023-03-12T08:49:50.670Z,100687.97
2023-03-12T08:52:17.898Z,100680.91
2023-03-12T08:54:45.241Z,100678.22
2023-03-12T08:57:12.509Z,100679.91
2023-03-12T08:59:40.006Z,100679.13
2023-03-12T09:02:07.400Z,100677.41
2023-03-12T09:04:34.765Z,100682.63
2023-03-12T09:07:02.192Z,100679.88
2023-03-12T09:09:29.514Z,100683.44
2023-03-12T09:11:57.248Z,100670.25
2023-03-12T09:17:11.839Z,100671.16
2023-03-12T09:19:39.483Z,100662.41
2023-03-12T09:22:06.730Z,100664.78
2023-03-12T09:24:33.971Z,100666.44
2023-03-12T09:27:02.544Z,100666.31
2023-03-12T09:29:30.165Z,100664.50
2023-03-12T09:31:57.387Z,100671.00
2023-03-12T09:34:24.732Z,100670.75
2023-03-12T09:36:52.218Z,100664.25
2023-03-12T09:39:21.111Z,100665.72
2023-03-12T09:41:49.107Z,100664.97
2023-03-12T09:44:39.825Z,100658.97
2023-03-12T09:47:23.418Z,100667.00
2023-03-12T09:49:54.255Z,100664.13
2023-03-12T09:52:33.098Z,100663.84
2023-03-12T09:55:03.666Z,100664.50
2023-03-12T09:57:31.143Z,100658.22
2023-03-12T09:59:58.685Z,100658.53
2023-03-12T10:02:51.587Z,100656.50
2023-03-12T10:05:57.786Z,100648.97
2023-03-12T10:08:36.844Z,100648.13
2023-03-12T10:11:33.497Z,100633.34
2023-03-12T10:14:04.768Z,100643.22
2023-03-12T10:17:10.739Z,100647.47
2023-03-12T10:20:25.738Z,100651.38
2023-03-12T10:23:21.571Z,100645.19
2023-03-12T10:26:05.503Z,100639.25
2023-03-12T10:29:01.536Z,100631.84
2023-03-12T10:31:41.638Z,100619.66
2023-03-12T10:34:37.685Z,100609.88
2023-03-12T10:37:38.887Z,100626.47
2023-03-12T10:40:06.821Z,100613.16
2023-03-12T10:42:34.333Z,100619.03
2023-03-12T10:45:10.875Z,100621.41
2023-03-12T10:47:43.114Z,100612.84
2023-03-12T10:50:20.062Z,100604.88
2023-03-12T10:52:49.239Z,100607.09
2023-03-12T10:55:26.529Z,100605.81
2023-03-12T10:57:54.500Z,100601.53
2023-03-12T11:00:27.205Z,100595.16
2023-03-12T11:03:01.231Z,100590.63
2023-03-12T11:05:37.337Z,100589.88
2023-03-12T11:08:13.693Z,100583.38
2023-03-12T11:10:44.259Z,100575.16
2023-03-12T11:13:23.987Z,100567.34
2023-03-12T11:15:53.607Z,100552.22
2023-03-12T11:18:35.673Z,100558.78
2023-03-12T11:21:14.952Z,100563.91
2023-03-12T11:23:43.954Z,100556.88
2023-03-12T11:26:17.449Z,100554.53
2023-03-12T11:28:51.178Z,100547.09
2023-03-12T11:31:25.434Z,100547.91
2023-03-12T11:33:55.168Z,100556.19
2023-03-12T11:36:30.766Z,100541.72
2023-03-12T11:39:26.051Z,100546.41
2023-03-12T11:42:25.622Z,100552.00
2023-03-12T11:45:15.018Z,100545.97
2023-03-12T11:48:11.189Z,100541.69
2023-03-12T11:51:17.877Z,100527.84
2023-03-12T11:54:10.409Z,100530.69
2023-03-12T11:56:41.105Z,100533.63
2023-03-12T11:59:19.758Z,100519.91
2023-03-12T12:02:23.042Z,100519.25
2023-03-12T12:05:00.413Z,100525.25
2023-03-12T12:07:33.686Z,100519.25
2023-03-12T12:10:19.577Z,100510.81
2023-03-12T12:13:03.090Z,100503.47
2023-03-12T12:16:01.476Z,100499.81
2023-03-12T12:18:43.637Z,100481.34
2023-03-12T12:21:37.716Z,100477.00
2023-03-12T12:24:18.353Z,100487.53
2023-03-12T12:26:56.608Z,100482.91
2023-03-12T12:29:52.992Z,100486.66
2023-03-12T12:32:36.942Z,100467.69
2023-03-12T12:35:44.310Z,100451.59
2023-03-12T12:38:38.804Z,100435.28
2023-03-12T12:41:20.853Z,100425.72
2023-03-12T12:43:49.294Z,100422.19
2023-03-12T12:46:23.675Z,100411.53
2023-03-12T12:48:57.138Z,100405.47
2023-03-12T12:51:30.227Z,100403.06
2023-03-12T12:54:13.979Z,100398.78
2023-03-12T12:56:48.956Z,100410.94
2023-03-12T12:59:25.791Z,100412.84
2023-03-12T13:01:55.367Z,100407.59
2023-03-12T13:04:32.412Z,100408.03
2023-03-12T13:07:27.850Z,100398.38
2023-03-12T13:09:59.516Z,100402.38
2023-03-12T13:12:42.397Z,100406.09
2023-03-12T13:15:34.438Z,100402.06
2023-03-12T13:18:22.894Z,100394.53
2023-03-12T13:20:53.180Z,100395.00
2023-03-12T13:23:45.453Z,100394.84
2023-03-12T13:26:43.018Z,100405.44
2023-03-12T13:29:37.754Z,100411.59
2023-03-12T13:32:06.498Z,100396.78
2023-03-12T13:34:45.647Z,100406.25
2023-03-12T13:37:31.917Z,100397.03
2023-03-12T13:40:05.733Z,100396.25
2023-03-12T13:42:39.642Z,100391.34
2023-03-12T13:45:27.989Z,100394.03
2023-03-12T13:48:03.144Z,100388.25
2023-03-12T13:50:42.312Z,100387.03
2023-03-12T13:53:16.585Z,100387.28
2023-03-12T13:55:47.073Z,100394.28
2023-03-12T13:58:23.721Z,100394.31
2023-03-12T14:01:06.588Z,100391.97
2023-03-12T14:03:41.465Z,100375.69
2023-03-12T14:06:19.386Z,100371.19
2023-03-12T14:09:24.922Z,100359.91
2023-03-12T14:12:04.876Z,100355.88
2023-03-12T14:14:57.342Z,100369.91
2023-03-12T14:17:27.273Z,100365.41
2023-03-12T14:20:18.857Z,100359.19
2023-03-12T14:22:50.672Z,100364.41
2023-03-12T14:25:31.356Z,100349.66
2023-03-12T14:27:59.140Z,100352.38
2023-03-12T14:30:49.783Z,100353.56
2023-03-12T14:33:17.612Z,100355.09
2023-03-12T14:36:06.156Z,100361.03
2023-03-12T14:38:50.631Z,100359.28
2023-03-12T14:41:32.476Z,100350.56
2023-03-12T14:44:25.283Z,100343.53
2023-03-12T14:47:12.807Z,100345.03
2023-03-12T14:49:43.232Z,100344.22
2023-03-12T14:52:25.147Z,100345.28
2023-03-12T14:55:12.987Z,100340.91
2023-03-12T14:57:42.766Z,100336.28
2023-03-12T15:00:33.696Z,100325.09
2023-03-12T15:03:04.317Z,100325.44
2023-03-12T15:05:34.078Z,100310.69
2023-03-12T15:08:03.636Z,100305.34
2023-03-12T15:10:32.294Z,100304.69
2023-03-12T15:13:00.760Z,100305.53
2023-03-12T15:15:42.572Z,100296.91
2023-03-12T15:18:35.917Z,100298.63
2023-03-12T15:21:03.446Z,100297.88
2023-03-12T15:23:33.261Z,100300.56
2023-03-12T15:26:27.007Z,100285.88
2023-03-12T15:29:00.631Z,100285.88
2023-03-12T15:31:39.960Z,100285.00
2023-03-12T15:34:07.270Z,100291.97
2023-03-12T15:36:37.012Z,100283.25
2023-03-12T15:39:19.762Z,100278.94
2023-03-12T15:41:49.236Z,100278.72
2023-03-12T15:44:26.013Z,100274.47
2023-03-12T15:46:57.141Z,100279.47
2023-03-12T15:49:30.534Z,100282.63
2023-03-12T15:52:18.799Z,100269.88
2023-03-12T15:55:04.859Z,100278.66
2023-03-12T15:57:46.072Z,100276.44
2023-03-12T16:00:15.752Z,100273.72
2023-03-12T16:02:53.147Z,100268.50
2023-03-12T16:05:23.529Z,100266.97
2023-03-12T16:07:50.857Z,100261.03
2023-03-12T16:10:20.324Z,100271.34
2023-03-12T16:12:49.232Z,100261.81
2023-03-12T16:15:26.795Z,100256.72
2023-03-12T16:17:54.193Z,100246.16
2023-03-12T16:20:21.591Z,100250.31
2023-03-12T16:22:48.948Z,100247.41
2023-03-12T16:25:16.306Z,100250.78
2023-03-12T16:27:51.497Z,100239.81
2023-03-12T16:30:28.993Z,100243.34
2023-03-12T16:32:58.443Z,100238.31
2023-03-12T16:35:28.155Z,100233.31
2023-03-12T16:37:55.848Z,100227.72
2023-03-12T16:40:33.055Z,100226.13
2023-03-12T16:43:02.653Z,100225.94
2023-03-12T16:45:33.101Z,100227.88
2023-03-12T16:48:02.803Z,100234.84
2023-03-12T16:50:30.145Z,100227.91
2023-03-12T16:52:58.038Z,100232.25
2023-03-12T16:55:29.907Z,100247.16
2023-03-12T16:57:59.374Z,100244.16
2023-03-12T17:00:29.550Z,100251.91
2023-03-12T17:02:58.090Z,100243.31
2023-03-12T17:05:30.971Z,100245.25
2023-03-12T17:07:59.427Z,100237.50
2023-03-12T17:10:27.346Z,100230.72
2023-03-12T17:12:55.710Z,100233.13
2023-03-12T17:15:30.438Z,100226.81
2023-03-12T17:17:59.397Z,100233.13
2023-03-12T17:20:36.264Z,100238.19
2023-03-12T17:23:04.363Z,100239.16
2023-03-12T17:25:33.885Z,100220.84
2023-03-12T17:28:01.307Z,100215.72
2023-03-12T17:30:29.862Z,100215.59
2023-03-12T17:33:27.186Z,100209.44
2023-03-12T17:36:06.434Z,100204.38
2023-03-12T17:38:33.881Z,100207.63
2023-03-12T17:41:02.038Z,100207.63
2023-03-12T17:43:29.459Z,100212.06
2023-03-12T17:45:57.296Z,100219.22
2023-03-12T17:48:25.077Z,100215.59
2023-03-12T17:50:52.343Z,100210.28
2023-03-12T17:53:19.743Z,100207.84
2023-03-12T17:55:54.320Z,100195.75
2023-03-12T17:58:21.600Z,100203.59
2023-03-12T18:00:49.567Z,100204.59
2023-03-12T18:03:16.823Z,100204.59
2023-03-12T18:05:46.242Z,100204.22
2023-03-12T18:08:16.614Z,100205.06
2023-03-12T18:10:44.012Z,100196.50
2023-03-12T18:13:11.443Z,100198.22
2023-03-12T18:15:38.877Z,100197.53
2023-03-12T18:18:06.844Z,100189.56
2023-03-12T18:20:39.104Z,100193.06
2023-03-12T18:23:07.098Z,100188.81
2023-03-12T18:25:34.741Z,100184.22
2023-03-12T18:28:04.127Z,100181.03
2023-03-12T18:30:31.344Z,100181.84
2023-03-12T18:32:59.294Z,100184.38
2023-03-12T18:35:29.065Z,100188.75
2023-03-12T18:37:57.897Z,100182.69
2023-03-12T18:40:25.378Z,100188.00
2023-03-12T18:42:52.712Z,100186.16
2023-03-12T18:45:20.046Z,100180.00
2023-03-12T18:47:50.465Z,100174.88
2023-03-12T18:50:17.911Z,100176.75
2023-03-12T18:52:45.182Z,100177.47
2023-03-12T18:55:15.405Z,100161.88
2023-03-12T18:57:43.449Z,100162.00
2023-03-12T19:00:13.781Z,100164.56
2023-03-12T19:02:42.237Z,100154.03
2023-03-12T19:05:11.175Z,100152.44
2023-03-12T19:07:39.826Z,100150.69
2023-03-12T19:10:07.859Z,100148.03
2023-03-12T19:12:45.463Z,100146.38
2023-03-12T19:15:17.986Z,100149.41
2023-03-12T19:17:45.208Z,100139.88
2023-03-12T19:20:14.102Z,100138.13
2023-03-12T19:22:43.437Z,100138.91
2023-03-12T19:25:10.889Z,100139.94
2023-03-12T19:27:38.185Z,100144.16
2023-03-12T19:30:05.988Z,100144.81
2023-03-12T19:32:42.952Z,100136.31
2023-03-12T19:35:12.895Z,100141.63
2023-03-12T19:37:40.200Z,100139.66
2023-03-12T19:40:08.370Z,100131.59
2023-03-12T19:42:35.602Z,100120.31
2023-03-12T19:45:05.143Z,100136.22
2023-03-12T19:47:33.298Z,100131.66
2023-03-12T19:50:02.310Z,100121.91
2023-03-12T19:52:30.493Z,100118.38
2023-03-12T19:55:04.604Z,100126.94
2023-03-12T19:57:33.643Z,100133.72
2023-03-12T20:00:07.055Z,100142.19
2023-03-12T20:02:34.480Z,100138.69
2023-03-12T20:05:01.978Z,100140.13
2023-03-12T20:07:29.468Z,100144.41
2023-03-12T20:09:58.954Z,100133.09
2023-03-12T20:12:28.223Z,100135.94
2023-03-12T20:14:55.493Z,100128.91
2023-03-12T20:17:23.207Z,100126.22
2023-03-12T20:19:50.830Z,100136.59
2023-03-12T20:22:18.023Z,100141.66
2023-03-12T20:24:45.388Z,100130.41
2023-03-12T20:27:14.859Z,100133.69
2023-03-12T20:29:43.449Z,100131.63
2023-03-12T20:32:11.620Z,100120.41
2023-03-12T20:34:39.060Z,100112.44
2023-03-12T20:37:06.405Z,100103.88
2023-03-12T20:39:34.216Z,100103.91
2023-03-12T20:42:01.625Z,100109.97
2023-03-12T20:44:28.963Z,100118.72
2023-03-12T20:46:57.600Z,100125.44
2023-03-12T20:49:24.867Z,100127.81
2023-03-12T20:51:53.089Z,100125.34
2023-03-12T20:54:20.369Z,100131.22
2023-03-12T20:56:47.887Z,100130.66
2023-03-12T20:59:15.683Z,100137.56
2023-03-12T21:01:43.141Z,100136.44
2023-03-12T21:04:10.488Z,100137.22
2023-03-12T21:06:38.732Z,100138.69
2023-03-12T21:09:06.057Z,100132.63
2023-03-12T21:11:33.397Z,100129.34
2023-03-12T21:14:00.677Z,100146.44
2023-03-12T21:16:28.087Z,100140.94
2023-03-12T21:18:58.970Z,100137.47
2023-03-12T21:21:26.341Z,100144.31
2023-03-12T21:23:54.536Z,100140.94
2023-03-12T21:26:22.120Z,100131.16
2023-03-12T21:28:49.732Z,100130.31
2023-03-12T21:31:17.830Z,100132.88
2023-03-12T21:34:02.507Z,100124.88
2023-03-12T21:36:32.397Z,100123.97
2023-03-12T21:39:01.776Z,100113.69
2023-03-12T21:41:28.984Z,100111.81
2023-03-12T21:43:56.171Z,100104.97
2023-03-12T21:46:27.605Z,100108.13
2023-03-12T21:48:56.589Z,100120.31
2023-03-12T21:51:26.001Z,100115.19
2023-03-12T21:53:54.288Z,100116.66
2023-03-12T21:56:21.631Z,100120.25
2023-03-12T21:58:50.973Z,100117.63
2023-03-12T22:01:19.178Z,100123.66
2023-03-12T22:03:47.061Z,100127.25
2023-03-12T22:06:15.575Z,100127.88
2023-03-12T22:08:48.178Z,100131.47
2023-03-12T22:11:18.018Z,100126.09
2023-03-12T22:13:45.211Z,100119.88
2023-03-12T22:16:14.686Z,100124.25
2023-03-12T22:18:44.720Z,100124.88
2023-03-12T22:21:17.560Z,100116.16
2023-03-12T22:23:47.657Z,100123.59
2023-03-12T22:26:15.144Z,100117.69
2023-03-12T22:28:43.342Z,100119.03
2023-03-12T22:31:11.013Z,100114.81
2023-03-12T22:33:38.712Z,100120.13
2023-03-12T22:36:10.501Z,100124.44
2023-03-12T22:38:39.048Z,100115.91
2023-03-12T22:41:20.982Z,100121.22
2023-03-12T22:43:49.270Z,100109.00
2023-03-12T22:46:21.758Z,100112.41
2023-03-12T22:48:53.412Z,100107.13
2023-03-12T22:51:20.642Z,100115.75
2023-03-12T22:53:47.944Z,100104.59
2023-03-12T22:56:15.355Z,100101.78
2023-03-12T22:58:42.641Z,100105.91
2023-03-12T23:01:12.326Z,100093.72
2023-03-12T23:03:41.549Z,100101.41
2023-03-12T23:06:10.976Z,100103.97
2023-03-12T23:08:38.753Z,100097.06
2023-03-12T23:11:06.899Z,100095.13
2023-03-12T23:13:35.916Z,100097.63
2023-03-12T23:16:08.408Z,100087.97
2023-03-12T23:18:36.016Z,100095.88
2023-03-12T23:21:05.882Z,100087.03
2023-03-12T23:23:33.449Z,100083.56
2023-03-12T23:26:01.751Z,100092.41
2023-03-12T23:28:29.783Z,100091.59
2023-03-12T23:31:02.443Z,100088.91
2023-03-12T23:33:30.767Z,100086.16
2023-03-12T23:36:00.534Z,100092.34
2023-03-12T23:38:28.942Z,100092.81
2023-03-12T23:41:04.688Z,100093.66
2023-03-12T23:43:31.948Z,100097.22
2023-03-12T23:46:00.755Z,100099.09
2023-03-12T23:48:29.850Z,100093.56
2023-03-12T23:51:14.512Z,100085.75
2023-03-12T23:53:44.604Z,100094.25
2023-03-12T23:56:14.725Z,100089.03
2023-03-12T23:58:43.536Z,100088.28
